Language: 


Des rapports , des résumés tant et plus, au choix de chacun....


Données statistiques de la station
Quotidien Rapport Aout 14, 2017 Unités:  Métrique    Anglais   les deux
« Précédent Jour
Suivant Jour »
Quotidien Hebdomadaire Mensuel Annuel Actuel
  Haut: Bas: Moyen:
Température: 30.1 °C 0.0 °C 20 °C
Pt de rosée: 18.0 °C 11.0 °C 13.5 °C
Humidité: 98 % 0 % 69 %
Vitesse du vent: 12.6 km/h 0.0 km/h 1 km/h
Rafales: 30.9 km/h - -
Vent:- - SSE
Pression: 1020.9 hPa 0.0 hPa -
Précipitation: 0.0 mm    
Historical Graphs
 
 
Données statistiques pour Aout 14, 2017
Heure Température Point de rosée Pression Vent Vitesse du vent Refales Humidité Pluie (taux horaire)
00:01 14.4 °C 11.0 °C 1020.9 hPa Calm     81 % 0.0 mm
00:06 14.4 °C 11.0 °C 1020.9 hPa Calm     81 % 0.0 mm
00:11 14.4 °C 11.0 °C 1020.9 hPa Calm     81 % 0.0 mm
00:16 14.3 °C 11.0 °C 1020.9 hPa Calm     81 % 0.0 mm
00:21 14.3 °C 12.0 °C 1020.9 hPa Calm     82 % 0.0 mm
00:26 14.3 °C 12.0 °C 1020.9 hPa Calm   5.0 km/h 82 % 0.0 mm
00:31 14.3 °C 12.0 °C 1020.9 hPa Calm   5.0 km/h 82 % 0.0 mm
00:36 14.2 °C 12.0 °C 1020.9 hPa Calm   1.8 km/h 82 % 0.0 mm
00:41 14.2 °C 12.0 °C 1019.9 hPa Calm   1.8 km/h 82 % 0.0 mm
00:46 14.1 °C 11.0 °C 1019.9 hPa Calm     82 % 0.0 mm
00:51 14.0 °C 11.0 °C 1019.9 hPa Calm     83 % 0.0 mm
00:56 13.9 °C 11.0 °C 1019.9 hPa Calm     83 % 0.0 mm
01:01 13.8 °C 11.0 °C 1019.9 hPa Calm     84 % 0.0 mm
01:06 13.7 °C 11.0 °C 1019.9 hPa Calm     84 % 0.0 mm
01:11 13.6 °C 11.0 °C 1020.9 hPa Calm     84 % 0.0 mm
01:16 13.4 °C 11.0 °C 1020.9 hPa Calm     84 % 0.0 mm
01:21 13.3 °C 11.0 °C 1020.9 hPa Calm   4.3 km/h 85 % 0.0 mm
01:26 13.3 °C 11.0 °C 1020.9 hPa Calm   4.3 km/h 85 % 0.0 mm
01:31 13.3 °C 11.0 °C 1020.9 hPa Calm   4.0 km/h 85 % 0.0 mm
01:36 13.2 °C 11.0 °C 1020.9 hPa Calm     85 % 0.0 mm
01:41 13.1 °C 11.0 °C 1020.9 hPa Calm     85 % 0.0 mm
01:42 13.1 °C 11.0 °C 1020.9 hPa Calm     85 % 0.0 mm
01:47 13.0 °C 11.0 °C 1020.9 hPa Calm     85 % 0.0 mm
01:52 12.8 °C 11.0 °C 1020.9 hPa Calm     86 % 0.0 mm
01:57 12.9 °C 11.0 °C 1020.9 hPa Calm     87 % 0.0 mm
02:02 13.0 °C 11.0 °C 1020.9 hPa Calm     88 % 0.0 mm
02:07 13.1 °C 11.0 °C 1020.9 hPa NNE 5.5 km/h 5.5 km/h 88 % 0.0 mm
02:13 13.3 °C 12.0 °C 1020.9 hPa Calm   5.5 km/h 89 % 0.0 mm
02:18 13.4 °C 12.0 °C 1020.9 hPa Calm   4.7 km/h 90 % 0.0 mm
02:23 13.6 °C 12.0 °C 1020.9 hPa Calm   4.7 km/h 90 % 0.0 mm
02:28 13.7 °C 12.0 °C 1020.9 hPa Calm   5.0 km/h 90 % 0.0 mm
02:33 13.9 °C 13.0 °C 1020.9 hPa Calm   5.8 km/h 91 % 0.0 mm
02:38 14.0 °C 13.0 °C 1020.9 hPa NE 4.0 km/h 6.9 km/h 91 % 0.0 mm
02:43 14.1 °C 13.0 °C 1019.9 hPa NE 2.1 km/h 6.9 km/h 91 % 0.0 mm
02:48 14.2 °C 13.0 °C 1019.9 hPa Calm   6.4 km/h 91 % 0.0 mm
02:53 14.3 °C 13.0 °C 1019.9 hPa Calm   5.0 km/h 92 % 0.0 mm
02:58 14.4 °C 13.0 °C 1019.9 hPa Calm   6.1 km/h 92 % 0.0 mm
03:03 0.0 °C 13.0 °C 1019.9 hPa Calm   5.8 km/h 0 % 0.0 mm
03:08 14.5 °C 13.0 °C 1019.9 hPa Calm   5.8 km/h 92 % 0.0 mm
03:13 14.5 °C 13.0 °C 1019.9 hPa Calm   2.6 km/h 92 % 0.0 mm
03:18 14.5 °C 13.0 °C 1019.9 hPa Calm   4.0 km/h 92 % 0.0 mm
03:23 14.5 °C 14.0 °C 1019.9 hPa Calm   4.0 km/h 93 % 0.0 mm
03:28 14.5 °C 14.0 °C 1018.8 hPa Calm   4.0 km/h 93 % 0.0 mm
03:29 14.5 °C 14.0 °C 1018.8 hPa Calm   4.0 km/h 93 % 0.0 mm
03:34 14.5 °C 14.0 °C 1018.8 hPa Calm   4.0 km/h 93 % 0.0 mm
03:39 14.6 °C 14.0 °C 1018.8 hPa Calm   2.1 km/h 93 % 0.0 mm
03:44 14.6 °C 14.0 °C 1018.8 hPa Calm   2.1 km/h 93 % 0.0 mm
03:49 14.6 °C 14.0 °C 1018.8 hPa Calm     93 % 0.0 mm
03:54 14.6 °C 14.0 °C 1018.8 hPa Calm     93 % 0.0 mm
03:59 14.6 °C 14.0 °C 1018.8 hPa Calm     93 % 0.0 mm
04:05 14.6 °C 14.0 °C 1018.8 hPa Calm     94 % 0.0 mm
04:10 14.5 °C 14.0 °C 1018.8 hPa Calm     94 % 0.0 mm
04:15 14.5 °C 14.0 °C 1018.8 hPa Calm     93 % 0.0 mm
04:20 14.4 °C 13.0 °C 1018.8 hPa Calm     94 % 0.0 mm
04:25 14.3 °C 13.0 °C 1018.8 hPa NNE 3.2 km/h 3.2 km/h 94 % 0.0 mm
04:30 14.2 °C 13.0 °C 1018.2 hPa Calm   3.2 km/h 94 % 0.0 mm
04:35 14.1 °C 13.0 °C 1018.2 hPa Calm   1.4 km/h 93 % 0.0 mm
04:40 14.0 °C 13.0 °C 1018.2 hPa Calm     93 % 0.0 mm
04:45 13.9 °C 13.0 °C 1018.8 hPa Calm     94 % 0.0 mm
04:50 13.8 °C 13.0 °C 1018.8 hPa Calm     94 % 0.0 mm
04:55 13.7 °C 13.0 °C 1018.8 hPa Calm     94 % 0.0 mm
04:57 13.7 °C 13.0 °C 1018.8 hPa Calm   3.5 km/h 94 % 0.0 mm
05:02 13.6 °C 13.0 °C 1018.8 hPa Calm   3.5 km/h 94 % 0.0 mm
05:07 13.5 °C 13.0 °C 1018.8 hPa Calm     94 % 0.0 mm
05:12 13.5 °C 13.0 °C 1018.8 hPa Calm     94 % 0.0 mm
05:17 13.4 °C 13.0 °C 1018.8 hPa Calm     95 % 0.0 mm
05:22 13.4 °C 13.0 °C 1018.8 hPa Calm     95 % 0.0 mm
05:27 13.3 °C 13.0 °C 1018.8 hPa Calm     95 % 0.0 mm
05:32 13.3 °C 13.0 °C 1018.8 hPa Calm     95 % 0.0 mm
05:37 13.3 °C 13.0 °C 1018.8 hPa Calm     95 % 0.0 mm
05:42 13.2 °C 13.0 °C 1018.2 hPa Calm     95 % 0.0 mm
05:47 13.1 °C 13.0 °C 1018.2 hPa Calm     95 % 0.0 mm
05:52 13.1 °C 13.0 °C 1018.2 hPa Calm     95 % 0.0 mm
05:57 13.0 °C 13.0 °C 1018.8 hPa Calm     96 % 0.0 mm
06:02 13.0 °C 13.0 °C 1018.8 hPa Calm     96 % 0.0 mm
06:07 13.0 °C 13.0 °C 1018.8 hPa Calm   2.1 km/h 96 % 0.0 mm
06:12 13.1 °C 13.0 °C 1018.8 hPa Calm   2.1 km/h 96 % 0.0 mm
06:17 13.0 °C 13.0 °C 1018.8 hPa Calm     96 % 0.0 mm
06:23 13.0 °C 13.0 °C 1018.8 hPa Calm     96 % 0.0 mm
06:28 13.0 °C 13.0 °C 1018.8 hPa Calm     96 % 0.0 mm
06:33 12.9 °C 13.0 °C 1018.8 hPa Calm     97 % 0.0 mm
06:38 12.9 °C 13.0 °C 1018.8 hPa Calm     97 % 0.0 mm
06:43 12.8 °C 13.0 °C 1018.8 hPa Calm     97 % 0.0 mm
06:48 12.8 °C 13.0 °C 1018.8 hPa Calm     97 % 0.0 mm
06:53 12.7 °C 13.0 °C 1018.8 hPa Calm     97 % 0.0 mm
06:58 12.7 °C 13.0 °C 1018.8 hPa Calm     97 % 0.0 mm
07:03 12.6 °C 13.0 °C 1018.8 hPa Calm     97 % 0.0 mm
07:08 12.6 °C 13.0 °C 1018.8 hPa Calm     97 % 0.0 mm
07:13 12.7 °C 13.0 °C 1018.8 hPa Calm     97 % 0.0 mm
07:18 13.0 °C 13.0 °C 1018.8 hPa Calm     97 % 0.0 mm
07:23 13.4 °C 13.0 °C 1018.8 hPa Calm     97 % 0.0 mm
07:28 13.7 °C 14.0 °C 1018.8 hPa Calm     98 % 0.0 mm
07:33 14.0 °C 14.0 °C 1018.8 hPa Calm     97 % 0.0 mm
07:38 14.5 °C 15.0 °C 1018.8 hPa Calm     98 % 0.0 mm
07:43 14.6 °C 14.0 °C 1019.9 hPa Calm     97 % 0.0 mm
07:48 15.0 °C 15.0 °C 1019.9 hPa Calm     97 % 0.0 mm
07:53 15.3 °C 15.0 °C 1019.9 hPa Calm     97 % 0.0 mm
07:55 15.4 °C 15.0 °C 1019.9 hPa Calm     97 % 0.0 mm
08:00 15.6 °C 15.0 °C 1018.8 hPa Calm     97 % 0.0 mm
08:05 16.0 °C 16.0 °C 1018.8 hPa Calm     96 % 0.0 mm
08:10 16.3 °C 16.0 °C 1018.8 hPa Calm     96 % 0.0 mm
08:15 16.7 °C 16.0 °C 1018.8 hPa Calm     96 % 0.0 mm
08:20 17.1 °C 16.0 °C 1018.8 hPa Calm   5.8 km/h 95 % 0.0 mm
08:25 17.4 °C 16.0 °C 1018.8 hPa Calm   6.4 km/h 94 % 0.0 mm
08:30 17.6 °C 17.0 °C 1018.8 hPa Calm   6.4 km/h 94 % 0.0 mm
08:35 18.0 °C 17.0 °C 1018.8 hPa Calm   5.0 km/h 93 % 0.0 mm
08:40 18.2 °C 17.0 °C 1018.8 hPa Calm     92 % 0.0 mm
08:45 18.7 °C 17.0 °C 1018.8 hPa Calm     92 % 0.0 mm
08:50 19.1 °C 18.0 °C 1018.8 hPa Calm     91 % 0.0 mm
08:56 19.3 °C 18.0 °C 1018.8 hPa Calm   4.0 km/h 90 % 0.0 mm
09:01 19.6 °C 18.0 °C 1018.8 hPa Calm   5.0 km/h 89 % 0.0 mm
09:06 20.0 °C 18.0 °C 1018.8 hPa Calm   5.0 km/h 87 % 0.0 mm
09:11 20.3 °C 18.0 °C 1018.8 hPa Calm     86 % 0.0 mm
09:16 20.5 °C 18.0 °C 1018.8 hPa Calm     85 % 0.0 mm
09:21 20.7 °C 18.0 °C 1018.8 hPa Calm     83 % 0.0 mm
09:26 21.0 °C 18.0 °C 1018.8 hPa Calm   5.5 km/h 82 % 0.0 mm
09:31 21.3 °C 18.0 °C 1018.8 hPa Calm   5.5 km/h 80 % 0.0 mm
09:36 21.4 °C 17.0 °C 1018.8 hPa Calm   4.7 km/h 78 % 0.0 mm
09:41 21.7 °C 18.0 °C 1018.8 hPa Calm   4.0 km/h 77 % 0.0 mm
09:46 21.7 °C 17.0 °C 1018.8 hPa Calm   4.0 km/h 75 % 0.0 mm
09:51 22.0 °C 18.0 °C 1018.8 hPa Calm     76 % 0.0 mm
09:56 22.3 °C 18.0 °C 1018.8 hPa Calm     74 % 0.0 mm
10:01 22.4 °C 18.0 °C 1018.8 hPa Calm   3.2 km/h 74 % 0.0 mm
10:06 22.6 °C 18.0 °C 1018.8 hPa Calm   3.2 km/h 72 % 0.0 mm
10:11 22.8 °C 18.0 °C 1018.8 hPa Calm     73 % 0.0 mm
10:16 23.1 °C 18.0 °C 1018.8 hPa Calm   4.0 km/h 71 % 0.0 mm
10:21 23.0 °C 17.0 °C 1018.8 hPa Calm   4.0 km/h 69 % 0.0 mm
10:26 23.4 °C 18.0 °C 1018.8 hPa Calm     70 % 0.0 mm
10:31 23.7 °C 18.0 °C 1018.8 hPa Calm     70 % 0.0 mm
10:36 23.9 °C 18.0 °C 1018.8 hPa Calm   2.1 km/h 69 % 0.0 mm
10:41 24.2 °C 18.0 °C 1018.2 hPa Calm   4.7 km/h 65 % 0.0 mm
10:47 24.3 °C 18.0 °C 1018.2 hPa Calm   4.7 km/h 65 % 0.0 mm
10:52 24.5 °C 18.0 °C 1018.2 hPa Calm   4.0 km/h 65 % 0.0 mm
10:57 24.6 °C 18.0 °C 1018.2 hPa Calm   2.1 km/h 64 % 0.0 mm
11:02 24.8 °C 17.0 °C 1018.2 hPa Calm   1.4 km/h 62 % 0.0 mm
11:07 24.9 °C 17.0 °C 1018.2 hPa Calm   1.4 km/h 62 % 0.0 mm
11:12 25.0 °C 17.0 °C 1018.8 hPa Calm     60 % 0.0 mm
11:17 25.6 °C 18.0 °C 1018.8 hPa SSW 5.8 km/h 6.9 km/h 61 % 0.0 mm
11:22 25.8 °C 17.0 °C 1018.8 hPa Calm   6.9 km/h 57 % 0.0 mm
11:24 25.9 °C 17.0 °C 1018.8 hPa Calm   6.9 km/h 58 % 0.0 mm
11:29 26.1 °C 17.0 °C 1018.2 hPa South 5.5 km/h 8.7 km/h 57 % 0.0 mm
11:34 26.0 °C 16.0 °C 1018.2 hPa ESE 1.4 km/h 8.7 km/h 53 % 0.0 mm
11:39 25.9 °C 15.0 °C 1018.2 hPa Calm   8.7 km/h 49 % 0.0 mm
11:44 25.8 °C 15.0 °C 1018.2 hPa Calm   9.0 km/h 50 % 0.0 mm
11:49 26.2 °C 16.0 °C 1018.2 hPa South 8.7 km/h 9.0 km/h 52 % 0.0 mm
11:54 26.4 °C 15.0 °C 1018.2 hPa South 5.8 km/h 8.7 km/h 50 % 0.0 mm
11:59 26.9 °C 17.0 °C 1018.2 hPa SW 1.8 km/h 8.7 km/h 53 % 0.0 mm
12:04 26.1 °C 14.0 °C 1018.2 hPa Calm   6.4 km/h 47 % 0.0 mm
12:09 25.9 °C 15.0 °C 1018.2 hPa Calm   6.4 km/h 49 % 0.0 mm
12:14 27.1 °C 15.0 °C 1018.2 hPa Calm     46 % 0.0 mm
12:19 27.2 °C 15.0 °C 1018.2 hPa SW 4.7 km/h 9.0 km/h 46 % 0.0 mm
12:24 25.9 °C 14.0 °C 1018.2 hPa Calm   9.0 km/h 46 % 0.0 mm
13:52 0.0 °C 13.0 °C 0.0 hPa Calm     0 % 0.0 mm
13:57 27.3 °C 12.0 °C 1016.8 hPa Calm   6.9 km/h 38 % 0.0 mm
14:02 27.2 °C 13.0 °C 1016.8 hPa SSE 4.7 km/h 6.9 km/h 40 % 0.0 mm
14:07 27.9 °C 13.0 °C 1016.8 hPa NE 7.6 km/h 10.1 km/h 40 % 0.0 mm
14:12 28.1 °C 13.0 °C 1016.8 hPa SSW 4.3 km/h 10.1 km/h 39 % 0.0 mm
14:17 28.1 °C 13.0 °C 1016.8 hPa SSE 6.1 km/h 9.7 km/h 39 % 0.0 mm
14:22 28.8 °C 13.0 °C 1016.8 hPa SE 6.4 km/h 9.7 km/h 38 % 0.0 mm
14:27 28.8 °C 13.0 °C 1016.8 hPa SSE 10.1 km/h 12.2 km/h 38 % 0.0 mm
14:32 28.8 °C 13.0 °C 1016.8 hPa South 12.2 km/h 12.2 km/h 38 % 0.0 mm
14:37 28.8 °C 13.0 °C 1016.8 hPa SW 9.3 km/h 12.2 km/h 38 % 0.0 mm
14:42 28.8 °C 13.0 °C 1016.8 hPa South 12.6 km/h 12.6 km/h 38 % 0.0 mm
14:47 28.8 °C 13.0 °C 1016.8 hPa SSE 5.5 km/h 12.6 km/h 38 % 0.0 mm
14:52 28.8 °C 13.0 °C 1016.8 hPa Calm   12.6 km/h 38 % 0.0 mm
14:57 28.8 °C 13.0 °C 1016.1 hPa Calm   6.9 km/h 38 % 0.0 mm
15:02 28.8 °C 13.0 °C 1016.1 hPa Calm   7.9 km/h 38 % 0.0 mm
15:07 28.8 °C 13.0 °C 1016.1 hPa Calm   7.9 km/h 38 % 0.0 mm
15:12 28.8 °C 13.0 °C 1016.8 hPa Calm   6.9 km/h 38 % 0.0 mm
15:18 28.8 °C 13.0 °C 1016.8 hPa ESE 9.7 km/h 9.7 km/h 38 % 0.0 mm
15:23 28.8 °C 13.0 °C 1016.8 hPa SSW 4.3 km/h 14.3 km/h 38 % 0.0 mm
15:28 28.8 °C 13.0 °C 1016.8 hPa Calm   14.3 km/h 38 % 0.0 mm
15:33 28.8 °C 13.0 °C 1016.8 hPa Calm   12.2 km/h 38 % 0.0 mm
15:38 28.8 °C 13.0 °C 1016.8 hPa ESE 4.0 km/h 8.7 km/h 38 % 0.0 mm
15:43 29.4 °C 13.0 °C 1016.8 hPa SE 6.4 km/h 8.7 km/h 37 % 0.0 mm
15:48 29.7 °C 13.0 °C 1016.8 hPa SSE 11.9 km/h 11.9 km/h 36 % 0.0 mm
15:53 29.7 °C 13.0 °C 1016.8 hPa Calm   12.2 km/h 36 % 0.0 mm
15:58 29.9 °C 13.0 °C 1016.8 hPa East 4.0 km/h 12.2 km/h 35 % 0.0 mm
16:03 30.1 °C 13.0 °C 1016.8 hPa SSE 5.0 km/h 9.3 km/h 34 % 0.0 mm
16:08 29.9 °C 13.0 °C 1016.8 hPa West 4.3 km/h 10.5 km/h 35 % 0.0 mm
16:13 30.0 °C 13.0 °C 1016.8 hPa Calm   10.5 km/h 35 % 0.0 mm
16:18 30.0 °C 13.0 °C 1016.8 hPa East 4.0 km/h 7.9 km/h 34 % 0.0 mm
16:23 29.9 °C 12.0 °C 1016.8 hPa West 7.9 km/h 13.7 km/h 33 % 0.0 mm
16:28 29.9 °C 13.0 °C 1016.1 hPa South 1.8 km/h 30.9 km/h 35 % 0.0 mm
16:33 29.8 °C 12.0 °C 1016.1 hPa SSW 4.0 km/h 30.9 km/h 33 % 0.0 mm
16:38 29.8 °C 12.0 °C 1016.1 hPa ESE 2.6 km/h 13.0 km/h 34 % 0.0 mm
16:43 29.0 °C 12.0 °C 1016.1 hPa SE 4.3 km/h 13.0 km/h 34 % 0.0 mm
16:48 28.4 °C 12.0 °C 1016.1 hPa ESE 6.1 km/h 10.5 km/h 36 % 0.0 mm
16:53 27.9 °C 12.0 °C 1016.1 hPa Calm   9.0 km/h 36 % 0.0 mm
16:58 27.0 °C 11.0 °C 1015.1 hPa Calm   9.0 km/h 37 % 0.0 mm
17:03 27.1 °C 12.0 °C 1015.1 hPa Calm   6.1 km/h 38 % 0.0 mm
17:08 27.5 °C 12.0 °C 1015.1 hPa Calm   4.3 km/h 38 % 0.0 mm
17:13 27.6 °C 12.0 °C 1016.1 hPa South 7.2 km/h 10.5 km/h 38 % 0.0 mm
17:19 27.1 °C 12.0 °C 1016.1 hPa Calm   10.5 km/h 39 % 0.0 mm
17:24 27.0 °C 12.0 °C 1016.1 hPa WSW 5.5 km/h 9.0 km/h 39 % 0.0 mm
17:29 26.8 °C 12.0 °C 1015.1 hPa South 6.1 km/h 9.0 km/h 40 % 0.0 mm
17:34 26.5 °C 13.0 °C 1015.1 hPa SSE 4.0 km/h 9.0 km/h 41 % 0.0 mm
17:39 27.0 °C 12.0 °C 1015.1 hPa Calm   9.7 km/h 39 % 0.0 mm
17:44 27.6 °C 13.0 °C 1015.1 hPa Calm   9.7 km/h 40 % 0.0 mm
17:49 27.9 °C 13.0 °C 1015.1 hPa Calm   9.7 km/h 39 % 0.0 mm
17:54 27.7 °C 13.0 °C 1015.1 hPa SSE 1.4 km/h 7.6 km/h 39 % 0.0 mm
17:59 27.5 °C 13.0 °C 1015.1 hPa Calm   7.9 km/h 39 % 0.0 mm
18:04 27.0 °C 12.0 °C 1015.1 hPa Calm   7.9 km/h 38 % 0.0 mm
18:09 26.5 °C 12.0 °C 1015.1 hPa Calm   5.0 km/h 40 % 0.0 mm
18:14 26.2 °C 12.0 °C 1015.1 hPa Calm   6.9 km/h 41 % 0.0 mm
18:19 26.0 °C 12.0 °C 1015.1 hPa Calm   6.9 km/h 41 % 0.0 mm
18:24 25.9 °C 12.0 °C 1015.1 hPa Calm   4.0 km/h 42 % 0.0 mm
18:29 26.1 °C 12.0 °C 1015.1 hPa South 2.1 km/h 9.0 km/h 42 % 0.0 mm
18:34 26.1 °C 12.0 °C 1015.1 hPa SW 9.7 km/h 9.7 km/h 40 % 0.0 mm
18:39 26.4 °C 12.0 °C 1015.1 hPa SSW 4.7 km/h 9.7 km/h 41 % 0.0 mm
18:44 26.8 °C 12.0 °C 1015.1 hPa South 6.9 km/h 9.7 km/h 40 % 0.0 mm
18:49 27.0 °C 13.0 °C 1015.1 hPa SW 1.8 km/h 11.6 km/h 40 % 0.0 mm
18:54 27.1 °C 12.0 °C 1015.1 hPa SSW 1.8 km/h 11.6 km/h 39 % 0.0 mm
18:59 27.2 °C 13.0 °C 1015.1 hPa Calm   7.6 km/h 40 % 0.0 mm
19:03 26.9 °C 13.0 °C 1015.1 hPa Calm   9.3 km/h 40 % 0.0 mm
19:08 26.8 °C 12.0 °C 1015.1 hPa SSE 7.9 km/h 9.3 km/h 40 % 0.0 mm
19:13 26.4 °C 12.0 °C 1014.1 hPa South 6.1 km/h 9.0 km/h 40 % 0.0 mm
19:18 26.3 °C 12.0 °C 1014.1 hPa Calm   9.0 km/h 40 % 0.0 mm
19:23 26.2 °C 12.0 °C 1014.1 hPa SW 4.3 km/h 6.1 km/h 40 % 0.0 mm
19:28 26.0 °C 12.0 °C 1014.1 hPa Calm   6.9 km/h 40 % 0.0 mm
19:33 25.7 °C 12.0 °C 1014.1 hPa South 2.1 km/h 6.9 km/h 41 % 0.0 mm
19:38 25.4 °C 12.0 °C 1014.1 hPa Calm   6.4 km/h 42 % 0.0 mm
19:43 25.3 °C 12.0 °C 1015.1 hPa Calm   5.0 km/h 42 % 0.0 mm
19:49 25.0 °C 12.0 °C 1015.1 hPa Calm   7.9 km/h 43 % 0.0 mm
19:54 24.6 °C 11.0 °C 1015.1 hPa Calm   7.9 km/h 43 % 0.0 mm
19:59 24.3 °C 12.0 °C 1015.1 hPa Calm   6.4 km/h 44 % 0.0 mm
20:04 24.0 °C 11.0 °C 1015.1 hPa Calm   6.4 km/h 44 % 0.0 mm
20:09 23.7 °C 11.0 °C 1015.1 hPa Calm   5.8 km/h 45 % 0.0 mm
20:14 23.5 °C 12.0 °C 1015.1 hPa Calm   4.3 km/h 46 % 0.0 mm
20:15 23.4 °C 11.0 °C 1015.1 hPa Calm   4.3 km/h 46 % 0.0 mm
20:20 23.3 °C 12.0 °C 1015.1 hPa Calm   4.3 km/h 47 % 0.0 mm
20:25 23.1 °C 11.0 °C 1015.1 hPa Calm   1.4 km/h 47 % 0.0 mm
20:30 22.9 °C 12.0 °C 1015.1 hPa Calm     48 % 0.0 mm
20:35 22.8 °C 12.0 °C 1015.1 hPa Calm     49 % 0.0 mm
20:40 22.5 °C 12.0 °C 1015.1 hPa Calm     50 % 0.0 mm
20:45 22.3 °C 12.0 °C 1015.1 hPa Calm     51 % 0.0 mm
20:47 22.2 °C 12.0 °C 1015.1 hPa Calm     52 % 0.0 mm
20:52 21.8 °C 12.0 °C 1015.1 hPa Calm     54 % 0.0 mm
20:57 21.6 °C 12.0 °C 1015.1 hPa Calm     54 % 0.0 mm
21:02 21.6 °C 12.0 °C 1015.1 hPa Calm     54 % 0.0 mm
21:07 20.9 °C 12.0 °C 1015.1 hPa Calm     57 % 0.0 mm
21:12 20.6 °C 12.0 °C 1015.1 hPa Calm     58 % 0.0 mm
21:17 20.3 °C 13.0 °C 1015.1 hPa Calm     60 % 0.0 mm
21:22 19.9 °C 13.0 °C 1015.1 hPa Calm     63 % 0.0 mm
21:27 19.6 °C 13.0 °C 1014.1 hPa Calm     64 % 0.0 mm
21:32 19.3 °C 13.0 °C 1014.1 hPa Calm     65 % 0.0 mm
21:37 19.0 °C 13.0 °C 1014.1 hPa Calm     66 % 0.0 mm
21:42 18.8 °C 13.0 °C 1014.1 hPa Calm     67 % 0.0 mm
21:47 18.4 °C 13.0 °C 1014.1 hPa Calm     68 % 0.0 mm
21:52 18.1 °C 12.0 °C 1014.1 hPa Calm     69 % 0.0 mm
21:57 17.9 °C 13.0 °C 1015.1 hPa Calm     70 % 0.0 mm
22:02 17.8 °C 13.0 °C 1015.1 hPa Calm     71 % 0.0 mm
22:07 17.5 °C 13.0 °C 1015.1 hPa Calm     72 % 0.0 mm
22:12 17.3 °C 13.0 °C 1016.1 hPa Calm     73 % 0.0 mm
22:17 17.2 °C 13.0 °C 1016.1 hPa Calm     73 % 0.0 mm
22:22 17.2 °C 13.0 °C 1016.1 hPa Calm     73 % 0.0 mm
22:27 16.9 °C 13.0 °C 1015.1 hPa Calm     75 % 0.0 mm
22:32 16.8 °C 13.0 °C 1015.1 hPa Calm     76 % 0.0 mm
22:37 16.6 °C 13.0 °C 1015.1 hPa Calm     77 % 0.0 mm
22:43 16.6 °C 13.0 °C 1015.1 hPa Calm     77 % 0.0 mm
22:48 16.5 °C 13.0 °C 1015.1 hPa Calm     78 % 0.0 mm
22:53 16.5 °C 13.0 °C 1015.1 hPa Calm     79 % 0.0 mm
22:58 16.4 °C 13.0 °C 1015.1 hPa Calm     79 % 0.0 mm
23:03 16.3 °C 13.0 °C 1015.1 hPa Calm     80 % 0.0 mm
23:08 16.3 °C 13.0 °C 1015.1 hPa Calm     80 % 0.0 mm
23:13 16.2 °C 13.0 °C 1015.1 hPa Calm     81 % 0.0 mm
23:18 16.2 °C 13.0 °C 1015.1 hPa Calm     81 % 0.0 mm
23:23 16.2 °C 13.0 °C 1015.1 hPa Calm     81 % 0.0 mm
23:28 16.2 °C 13.0 °C 1015.1 hPa Calm     81 % 0.0 mm
23:33 15.8 °C 13.0 °C 1015.1 hPa Calm     82 % 0.0 mm
23:38 15.7 °C 13.0 °C 1015.1 hPa Calm     82 % 0.0 mm
23:43 15.8 °C 13.0 °C 1014.1 hPa Calm     83 % 0.0 mm
23:48 15.8 °C 13.0 °C 1014.1 hPa Calm     83 % 0.0 mm
23:53 15.9 °C 13.0 °C 1014.1 hPa Calm   4.0 km/h 84 % 0.0 mm
23:58 15.9 °C 13.0 °C 1015.1 hPa Calm   4.3 km/h 84 % 0.0 mm
Le Gheer Warneton
Courtoisie de Weather Underground - 2.25 mb

Mise a jour : 17/12/2017 22:29:12
Généré par Cumulus 1.9.4 (1099)